Time;durP1;ratioP1;P1;durP2;ratioP2;P2;SDS_P1;SDS_P2;PMS_P1;PMS_P2;Temp;Humidity;BMP_temperature;BMP_pressure;BME280_temperature;BME280_humidity;BME280_pressure;Samples;Min_cycle;Max_cycle;Signal;HPM_P1;HPM_P2
2021/12/21 00:01:32;;;;;;;6.50;2.90;;;;;;;5.58;46.87;99620.34;4330918;33;34401;-87
2021/12/21 00:04:00;;;;;;;5.25;2.60;;;;;;;4.64;48.52;99616.47;4330774;33;34547;-89
2021/12/21 00:06:28;;;;;;;6.28;3.00;;;;;;;4.82;48.28;99616.38;4330033;33;33829;-80
2021/12/21 00:08:55;;;;;;;5.60;2.37;;;;;;;5.58;46.68;99617.78;4317580;33;34941;-81
2021/12/21 00:11:23;;;;;;;6.32;2.65;;;;;;;5.27;47.11;99616.56;4330563;33;33970;-82
2021/12/21 00:24:12;;;;;;;5.12;2.12;;;;;;;4.98;46.29;99635.87;4330888;33;33795;-86
2021/12/21 00:26:39;;;;;;;4.68;2.37;;;;;;;4.15;47.64;99634.81;4330560;33;33778;-86
2021/12/21 00:29:07;;;;;;;4.50;2.10;;;;;;;4.66;47.25;99637.09;4331049;33;32772;-87
2021/12/21 00:31:37;;;;;;;4.72;2.20;;;;;;;5.08;45.86;99622.63;4330347;33;34169;-82
2021/12/21 00:34:06;;;;;;;6.20;2.20;;;;;;;5.15;46.11;99628.00;4305471;33;32629;-83
2021/12/21 00:36:37;;;;;;;4.00;2.22;;;;;;;4.97;46.39;99629.00;4305023;33;34474;-84
2021/12/21 00:39:12;;;;;;;3.95;2.33;;;;;;;3.95;48.84;99647.53;4317881;33;33966;-82
2021/12/21 00:41:40;;;;;;;3.70;1.98;;;;;;;4.21;48.32;99643.63;4330563;33;35455;-81
2021/12/21 00:44:08;;;;;;;4.70;2.22;;;;;;;3.27;50.18;99662.25;4302586;33;34383;-83
2021/12/21 00:46:36;;;;;;;4.57;2.03;;;;;;;3.83;48.92;99648.72;4321935;33;33652;-82
2021/12/21 00:49:13;;;;;;;5.62;2.35;;;;;;;2.81;51.20;99641.13;4330589;33;33714;-83
2021/12/21 00:51:46;;;;;;;7.37;2.35;;;;;;;3.27;49.89;99641.75;4330363;33;33837;-82
2021/12/21 00:54:15;;;;;;;3.80;2.28;;;;;;;4.47;47.74;99655.94;4330383;33;33668;-81
2021/12/21 00:56:42;;;;;;;5.78;2.40;;;;;;;4.37;47.04;99656.31;4329945;33;34845;-86
2021/12/21 00:59:10;;;;;;;5.12;2.67;;;;;;;2.81;51.36;99667.63;4211516;33;3123463;-84
2021/12/21 01:01:41;;;;;;;7.50;2.78;;;;;;;3.69;49.49;99671.97;4330304;33;35037;-80
2021/12/21 01:04:18;;;;;;;5.22;2.50;;;;;;;4.38;47.72;99669.22;4330416;33;34317;-82
2021/12/21 01:07:19;;;;;;;6.37;2.50;;;;;;;3.83;48.77;99673.50;4330251;33;34093;-87
2021/12/21 01:10:03;;;;;;;5.47;2.40;;;;;;;4.96;46.68;99662.31;4329628;33;34927;-84
2021/12/21 01:15:36;;;;;;;6.78;2.37;;;;;;;4.95;45.83;99671.72;4312873;33;33189;-82
2021/12/21 01:18:12;;;;;;;5.82;2.40;;;;;;;4.86;45.48;99672.22;4329684;33;33638;-87
2021/12/21 01:20:46;;;;;;;6.15;2.75;;;;;;;4.69;46.78;99688.56;4329953;33;35087;-80
2021/12/21 01:23:46;;;;;;;6.32;2.47;;;;;;;3.88;48.16;99678.03;4330191;33;34858;-84
2021/12/21 01:28:53;;;;;;;6.25;2.92;;;;;;;3.62;49.32;99693.84;4329856;33;33922;-80
2021/12/21 01:31:33;;;;;;;4.70;2.58;;;;;;;3.21;50.48;99704.59;4315510;33;34834;-80
2021/12/21 01:36:54;;;;;;;5.37;2.62;;;;;;;4.16;47.86;99692.12;4329709;33;33461;-82
2021/12/21 01:49:49;;;;;;;4.18;2.33;;;;;;;3.56;50.01;99680.72;4332205;33;35489;-81
2021/12/21 01:52:23;;;;;;;5.30;2.83;;;;;;;3.24;50.96;99681.72;4331959;33;34324;-82
2021/12/21 01:54:51;;;;;;;6.32;3.00;;;;;;;3.00;50.97;99679.69;4331304;33;33911;-82
2021/12/21 01:57:19;;;;;;;9.23;3.20;;;;;;;3.97;48.49;99682.69;4332076;33;33291;-82
2021/12/21 01:59:48;;;;;;;5.95;3.10;;;;;;;4.93;46.28;99696.50;4331712;33;34815;-82
2021/12/21 02:02:18;;;;;;;8.88;3.72;;;;;;;3.81;48.68;99696.50;4330862;33;34015;-82
2021/12/21 02:04:46;;;;;;;7.53;3.60;;;;;;;3.59;49.44;99698.81;4331219;33;34274;-82
2021/12/21 02:07:14;;;;;;;5.47;2.62;;;;;;;3.81;48.77;99691.38;4331961;33;34580;-83
2021/12/21 02:09:41;;;;;;;6.07;2.92;;;;;;;2.84;51.18;99698.50;4331323;33;34824;-83
2021/12/21 02:12:10;;;;;;;5.75;3.25;;;;;;;4.59;46.94;99695.00;4331309;33;34178;-81
2021/12/21 02:14:38;;;;;;;5.25;2.45;;;;;;;4.02;48.00;99696.66;4317959;33;34553;-82
2021/12/21 02:19:56;;;;;;;6.97;2.30;;;;;;;3.53;47.63;99703.66;4331684;33;34825;-82
2021/12/21 02:22:26;;;;;;;6.65;2.35;;;;;;;3.23;47.78;99703.91;4317810;33;34877;-81
2021/12/21 02:25:04;;;;;;;5.18;2.40;;;;;;;3.11;47.79;99701.59;4330930;33;34671;-81
2021/12/21 02:27:55;;;;;;;4.60;2.28;;;;;;;3.24;47.67;99703.09;4331311;33;33618;-82
2021/12/21 02:30:23;;;;;;;5.55;2.50;;;;;;;4.27;45.10;99692.62;4331608;33;33930;-82
2021/12/21 02:32:51;;;;;;;4.50;2.30;;;;;;;3.08;47.03;99700.56;4312623;33;32616;-83
2021/12/21 02:35:19;;;;;;;5.78;2.62;;;;;;;3.74;46.16;99693.56;4331763;33;34068;-82
2021/12/21 02:37:46;;;;;;;4.28;2.25;;;;;;;4.45;43.74;99683.22;4331309;33;33698;-83
2021/12/21 02:40:15;;;;;;;6.10;2.22;;;;;;;3.80;45.51;99694.75;4318367;33;34266;-81
2021/12/21 02:42:42;;;;;;;4.82;2.17;;;;;;;3.16;46.92;99706.94;4331400;33;33898;-82
2021/12/21 02:45:11;;;;;;;5.60;2.55;;;;;;;4.57;43.71;99700.88;4317926;33;35032;-82
2021/12/21 02:47:39;;;;;;;6.10;2.67;;;;;;;2.95;47.26;99716.09;4331427;33;33757;-82
2021/12/21 02:50:08;;;;;;;4.93;2.20;;;;;;;3.14;47.08;99729.94;4317269;33;33889;-83
2021/12/21 02:52:35;;;;;;;6.82;2.60;;;;;;;3.85;45.56;99726.59;4330883;33;33775;-83
2021/12/21 02:55:04;;;;;;;5.50;1.98;;;;;;;2.80;47.27;99732.41;4331182;33;35041;-82
2021/12/21 02:57:31;;;;;;;3.75;1.98;;;;;;;3.47;46.30;99734.13;4331520;33;34256;-82
2021/12/21 03:00:02;;;;;;;5.45;2.42;;;;;;;3.86;45.26;99723.25;4330935;33;33870;-81
2021/12/21 03:02:31;;;;;;;4.62;2.00;;;;;;;3.21;46.30;99732.78;4330726;33;34261;-81
2021/12/21 03:04:59;;;;;;;4.30;2.35;;;;;;;3.24;46.44;99746.66;4330998;33;34832;-81
2021/12/21 03:08:01;;;;;;;5.12;1.98;;;;;;;3.92;44.66;99729.47;4331028;33;33421;-83
2021/12/21 03:10:16;;;;;;;4.97;2.28;;;;;;;3.19;45.94;99740.41;4330083;33;33852;-82
2021/12/21 03:15:31;;;;;;;5.37;2.28;;;;;;;4.13;44.13;99748.47;4318882;33;34098;-82
2021/12/21 03:17:58;;;;;;;5.03;2.03;;;;;;;3.33;45.12;99757.37;4331567;33;33026;-82
2021/12/21 03:20:27;;;;;;;4.57;2.30;;;;;;;4.61;42.12;99751.53;4331407;33;33426;-82
2021/12/21 03:22:55;;;;;;;4.43;1.60;;;;;;;4.57;41.99;99747.97;4330641;33;33989;-82
2021/12/21 03:25:23;;;;;;;4.60;1.90;;;;;;;4.33;42.96;99754.53;4330786;33;34209;-82
2021/12/21 03:27:51;;;;;;;3.58;1.80;;;;;;;3.95;42.85;99751.03;4331528;33;33634;-83
2021/12/21 03:30:18;;;;;;;4.20;1.90;;;;;;;4.14;42.83;99747.66;4330903;33;33463;-83
2021/12/21 03:32:46;;;;;;;3.78;1.67;;;;;;;4.75;41.39;99757.31;4330822;33;34233;-82
2021/12/21 03:35:13;;;;;;;4.40;1.80;;;;;;;4.99;40.68;99754.97;4330787;33;34114;-82
2021/12/21 03:37:41;;;;;;;5.82;1.65;;;;;;;4.84;41.19;99750.88;4331396;33;34614;-83
2021/12/21 03:40:09;;;;;;;4.50;1.70;;;;;;;5.43;39.70;99758.59;4317723;33;33912;-82
2021/12/21 03:42:36;;;;;;;6.00;2.25;;;;;;;6.24;37.35;99762.81;4331196;33;34216;-82
2021/12/21 03:45:04;;;;;;;7.22;1.80;;;;;;;5.92;37.96;99765.78;4331214;33;34925;-82
2021/12/21 03:47:32;;;;;;;4.62;1.65;;;;;;;5.26;38.88;99768.12;4331117;33;35113;-82
2021/12/21 03:50:02;;;;;;;5.43;2.10;;;;;;;5.72;38.01;99770.09;4330838;33;33630;-82
2021/12/21 03:52:30;;;;;;;5.57;2.15;;;;;;;4.76;39.24;99777.94;4331129;33;34190;-86
2021/12/21 03:55:00;;;;;;;4.22;1.60;;;;;;;4.86;39.35;99774.97;4317682;33;34310;-82
2021/12/21 03:57:28;;;;;;;4.45;1.67;;;;;;;5.06;39.52;99778.44;4317612;33;34290;-83
2021/12/21 03:59:57;;;;;;;4.55;1.80;;;;;;;5.45;38.33;99772.37;4317689;33;33577;-83
2021/12/21 04:02:26;;;;;;;5.12;1.85;;;;;;;5.91;37.89;99784.59;4330564;33;34130;-82
2021/12/21 04:04:56;;;;;;;3.53;1.40;;;;;;;6.49;36.71;99789.53;4330507;33;33742;-82
2021/12/21 04:07:24;;;;;;;4.87;1.87;;;;;;;6.61;36.36;99777.12;4330936;33;33548;-81
2021/12/21 04:09:52;;;;;;;5.60;1.95;;;;;;;6.69;36.41;99773.16;4317593;33;33584;-83
2021/12/21 04:12:20;;;;;;;6.53;2.00;;;;;;;7.44;35.33;99769.84;4330975;33;35088;-83
2021/12/21 04:14:48;;;;;;;4.70;2.28;;;;;;;7.44;34.91;99767.28;4330677;33;33928;-82
2021/12/21 04:17:22;;;;;;;3.58;1.40;;;;;;;6.69;36.01;99775.72;4317024;33;35205;-82
2021/12/21 04:19:50;;;;;;;2.95;1.30;;;;;;;6.93;35.45;99780.94;4330939;33;33417;-82
2021/12/21 04:22:18;;;;;;;3.22;1.55;;;;;;;6.72;35.51;99780.13;4317535;33;33778;-85
2021/12/21 04:24:46;;;;;;;4.32;1.73;;;;;;;7.21;35.07;99774.19;4330730;33;33631;-83
2021/12/21 04:27:16;;;;;;;4.07;1.75;;;;;;;6.31;35.99;99785.41;4330586;33;34235;-81
2021/12/21 04:29:44;;;;;;;4.35;1.60;;;;;;;7.04;34.96;99776.16;4317461;33;33576;-82
2021/12/21 04:32:11;;;;;;;3.28;1.40;;;;;;;7.07;35.03;99782.28;4317377;33;34013;-83
2021/12/21 04:34:39;;;;;;;4.95;1.83;;;;;;;6.40;35.42;99777.16;4330333;33;34296;-83
2021/12/21 04:37:08;;;;;;;3.47;1.40;;;;;;;6.49;35.24;99787.84;4330928;33;33282;-83
2021/12/21 04:39:48;;;;;;;3.28;1.50;;;;;;;5.42;36.80;99795.37;4330574;33;34799;-82
2021/12/21 04:42:16;;;;;;;4.12;1.70;;;;;;;5.57;37.46;99796.06;4330696;33;33506;-82
2021/12/21 04:44:44;;;;;;;4.12;1.75;;;;;;;5.46;37.45;99794.72;4317306;33;34243;-82
2021/12/21 04:47:11;;;;;;;4.80;1.98;;;;;;;4.79;38.49;99797.75;4316993;33;34286;-82
2021/12/21 04:49:39;;;;;;;5.72;1.90;;;;;;;5.13;38.08;99805.28;4330347;33;34264;-82
2021/12/21 04:52:07;;;;;;;4.15;1.58;;;;;;;4.92;38.95;99794.03;4330586;33;34204;-82
2021/12/21 04:54:36;;;;;;;3.15;1.40;;;;;;;5.27;38.01;99801.63;4317246;33;34944;-82
2021/12/21 04:57:04;;;;;;;4.25;1.95;;;;;;;4.46;39.48;99804.75;4330562;33;33837;-82
2021/12/21 04:59:31;;;;;;;5.95;2.17;;;;;;;4.59;38.65;99807.09;4330112;33;33904;-84
2021/12/21 05:01:59;;;;;;;3.80;1.80;;;;;;;5.15;38.14;99813.06;4317062;33;33822;-82
2021/12/21 05:04:26;;;;;;;6.25;1.87;;;;;;;4.90;38.51;99821.38;4330060;33;33852;-82
2021/12/21 05:06:54;;;;;;;3.92;1.60;;;;;;;5.23;37.98;99822.88;4330613;33;33786;-82
2021/12/21 05:09:26;;;;;;;3.70;2.12;;;;;;;5.88;36.48;99821.38;4329933;33;34669;-83
2021/12/21 05:12:01;;;;;;;4.37;1.77;;;;;;;6.70;34.81;99826.44;4329882;33;35186;-81
2021/12/21 05:14:28;;;;;;;6.87;3.03;;;;;;;6.45;35.80;99821.16;4329247;33;35034;-82
2021/12/21 05:16:56;;;;;;;9.95;4.43;;;;;;;6.52;35.86;99825.72;4316941;33;33609;-82
2021/12/21 05:19:23;;;;;;;8.13;4.45;;;;;;;6.52;35.61;99828.31;4330385;33;33869;-82
2021/12/21 05:21:51;;;;;;;5.30;2.50;;;;;;;6.69;34.63;99831.53;4329795;33;35049;-82
2021/12/21 05:24:19;;;;;;;7.32;2.95;;;;;;;7.02;34.88;99847.41;4329904;33;34946;-82
2021/12/21 05:26:46;;;;;;;10.63;2.90;;;;;;;6.95;34.80;99840.28;4330288;33;33419;-83
2021/12/21 05:29:14;;;;;;;6.20;2.95;;;;;;;7.23;34.43;99848.19;4329833;33;34631;-83
2021/12/21 05:31:41;;;;;;;6.80;2.70;;;;;;;7.11;34.63;99846.88;4328784;33;34045;-86
2021/12/21 05:34:09;;;;;;;4.95;2.67;;;;;;;7.32;34.09;99851.13;4328419;33;35043;-80
2021/12/21 05:36:37;;;;;;;6.87;3.60;;;;;;;6.99;34.55;99840.44;4327411;33;33277;-81
2021/12/21 05:39:14;;;;;;;5.18;2.70;;;;;;;7.10;34.08;99843.41;4328573;33;34009;-80
2021/12/21 05:44:21;;;;;;;7.10;2.37;;;;;;;7.69;33.73;99833.47;4317132;33;34519;-82
2021/12/21 05:46:50;;;;;;;5.35;2.80;;;;;;;7.25;34.03;99841.41;4316683;33;33646;-81
2021/12/21 05:49:17;;;;;;;7.75;2.70;;;;;;;7.25;34.06;99854.31;4329408;33;33614;-81
2021/12/21 05:51:45;;;;;;;7.30;2.35;;;;;;;7.07;34.26;99851.03;4329661;33;33918;-81
2021/12/21 05:54:15;;;;;;;4.47;2.00;;;;;;;7.12;34.26;99854.66;4329342;33;34317;-82
2021/12/21 05:56:42;;;;;;;5.50;2.58;;;;;;;6.19;34.43;99869.91;4316370;33;33384;-80
2021/12/21 05:59:10;;;;;;;6.47;2.05;;;;;;;6.89;34.03;99876.97;4316479;33;33430;-81
2021/12/21 06:01:37;;;;;;;7.80;2.40;;;;;;;7.18;33.91;99878.09;4316236;33;33723;-82
2021/12/21 06:04:05;;;;;;;7.35;2.50;;;;;;;6.82;33.87;99880.16;4328238;33;34464;-82
2021/12/21 06:06:33;;;;;;;3.95;1.77;;;;;;;7.13;33.00;99887.37;4328908;33;34420;-82
2021/12/21 06:09:05;;;;;;;6.35;2.00;;;;;;;7.23;33.31;99884.28;4329361;33;33526;-83
2021/12/21 06:11:43;;;;;;;6.32;2.08;;;;;;;6.97;33.82;99890.16;4329475;33;33715;-82
2021/12/21 06:14:37;;;;;;;5.00;2.15;;;;;;;7.09;33.52;99900.97;4316712;33;34501;-82
2021/12/21 06:22:46;;;;;;;5.78;1.98;;;;;;;6.51;34.64;99914.09;4329012;33;33906;-82
2021/12/21 06:27:50;;;;;;;6.62;2.28;;;;;;;7.14;33.88;99924.34;4331611;33;33616;-81
2021/12/21 06:30:20;;;;;;;3.47;1.70;;;;;;;6.76;33.78;99923.72;4317950;33;35347;-82
2021/12/21 06:32:48;;;;;;;5.68;2.20;;;;;;;7.17;33.66;99920.19;4330343;33;33879;-82
2021/12/21 06:35:16;;;;;;;4.85;1.98;;;;;;;6.90;34.51;99929.44;4330766;33;34112;-81
2021/12/21 06:37:44;;;;;;;5.28;1.80;;;;;;;7.34;34.08;99931.13;4318266;33;33719;-81
2021/12/21 06:40:12;;;;;;;5.30;2.20;;;;;;;7.55;33.81;99931.94;4331899;33;34536;-82
2021/12/21 06:42:41;;;;;;;3.35;1.80;;;;;;;7.88;33.40;99933.09;4331660;33;34379;-87
2021/12/21 06:45:24;;;;;;;5.90;2.45;;;;;;;7.20;34.42;99933.22;4330999;33;34328;-82
2021/12/21 06:53:28;;;;;;;7.15;2.28;;;;;;;7.05;34.75;99943.81;4331115;33;34939;-82
2021/12/21 06:55:55;;;;;;;5.35;1.98;;;;;;;7.22;34.08;99939.28;4318009;33;33720;-82
2021/12/21 06:58:22;;;;;;;5.60;2.03;;;;;;;7.30;34.16;99942.16;4331789;33;33665;-82
2021/12/21 07:00:52;;;;;;;4.37;1.95;;;;;;;7.16;34.65;99949.38;4331047;33;34812;-83
2021/12/21 07:03:20;;;;;;;5.25;2.10;;;;;;;7.06;34.82;99948.13;4318128;33;34741;-81
2021/12/21 07:05:49;;;;;;;5.87;2.37;;;;;;;6.92;34.88;99958.72;4318074;33;35004;-81
2021/12/21 07:08:21;;;;;;;6.05;2.58;;;;;;;7.24;34.66;99953.13;4331280;33;33415;-82
2021/12/21 07:19:14;;;;;;;4.55;2.15;;;;;;;7.05;34.73;99956.69;4331279;33;33682;-81
2021/12/21 07:21:41;;;;;;;4.65;2.33;;;;;;;6.64;35.04;99957.63;4331201;33;34041;-80
2021/12/21 07:24:09;;;;;;;5.07;2.10;;;;;;;7.31;33.35;99954.22;4330815;33;34205;-81
2021/12/21 07:26:37;;;;;;;6.12;2.30;;;;;;;7.12;34.17;99949.19;4331261;33;34332;-81
2021/12/21 07:29:05;;;;;;;4.12;1.75;;;;;;;7.27;34.70;99952.34;4331288;33;33762;-81
2021/12/21 07:31:33;;;;;;;7.22;2.42;;;;;;;7.43;34.48;99959.00;4317922;33;35182;-82
2021/12/21 07:34:02;;;;;;;6.43;2.20;;;;;;;7.85;33.22;99959.72;4331354;33;34136;-81
2021/12/21 07:36:31;;;;;;;5.05;2.10;;;;;;;6.81;34.77;99958.28;4330815;33;33976;-81
2021/12/21 07:38:59;;;;;;;6.68;2.30;;;;;;;6.70;35.27;99955.25;4331136;33;33687;-81
2021/12/21 07:41:27;;;;;;;8.85;2.17;;;;;;;6.43;35.75;99964.44;4318102;33;33857;-81
2021/12/21 07:43:55;;;;;;;5.50;2.42;;;;;;;6.35;35.63;99958.97;4331476;33;33686;-81
2021/12/21 07:46:22;;;;;;;6.75;2.42;;;;;;;6.64;35.50;99957.63;4330954;33;34022;-81
2021/12/21 07:48:50;;;;;;;7.05;2.42;;;;;;;7.25;34.73;99960.03;4317774;33;33733;-79
2021/12/21 07:51:18;;;;;;;7.97;2.72;;;;;;;6.32;35.88;99967.44;4314594;33;32470;-81
2021/12/21 07:53:45;;;;;;;6.43;2.50;;;;;;;6.76;34.86;99952.94;4328211;33;33851;-81
2021/12/21 07:56:16;;;;;;;5.45;2.58;;;;;;;6.27;36.29;99974.09;4306059;33;33859;-82
2021/12/21 07:58:45;;;;;;;6.78;2.58;;;;;;;5.64;37.67;99974.69;4330980;33;33793;-83
2021/12/21 08:01:13;;;;;;;6.62;2.90;;;;;;;5.91;37.29;99977.59;4317464;33;33546;-81
2021/12/21 08:03:41;;;;;;;7.10;3.22;;;;;;;5.92;37.23;99972.56;4317689;33;34293;-81
2021/12/21 08:06:12;;;;;;;7.57;2.37;;;;;;;4.38;39.95;99979.84;4330572;33;34189;-81
2021/12/21 08:08:42;;;;;;;7.25;2.42;;;;;;;4.67;39.42;99983.00;4317989;33;34603;-81
2021/12/21 08:13:39;;;;;;;7.57;2.90;;;;;;;5.84;37.16;99968.75;4313525;33;35058;-80
2021/12/21 08:16:07;;;;;;;5.97;2.37;;;;;;;4.14;41.13;99983.75;4327003;33;33875;-79
2021/12/21 08:18:35;;;;;;;6.25;2.62;;;;;;;5.78;37.96;99971.03;4321587;33;34467;-81
2021/12/21 08:21:02;;;;;;;6.07;2.53;;;;;;;4.96;39.92;99983.50;4315905;33;34897;-81
2021/12/21 08:23:30;;;;;;;9.48;2.58;;;;;;;4.00;41.87;99987.28;4330327;33;34212;-87
2021/12/21 08:26:00;;;;;;;7.47;2.83;;;;;;;4.93;40.80;99986.81;4329024;33;33769;-81
2021/12/21 08:28:28;;;;;;;9.15;2.97;;;;;;;5.02;40.26;99983.81;4329591;33;33628;-80
2021/12/21 08:30:55;;;;;;;5.87;2.83;;;;;;;4.87;40.80;99989.97;4315227;33;33941;-81
2021/12/21 08:33:25;;;;;;;7.47;4.25;;;;;;;5.00;40.94;99987.97;4328827;33;34113;-80
2021/12/21 08:35:52;;;;;;;5.10;2.72;;;;;;;5.09;40.59;99989.31;4313803;33;33687;-81
2021/12/21 08:38:20;;;;;;;7.62;3.12;;;;;;;4.31;42.40;99997.41;4328058;33;33062;-80
2021/12/21 08:40:50;;;;;;;6.20;3.15;;;;;;;5.18;40.88;99991.44;4329751;33;34027;-81
2021/12/21 08:43:23;;;;;;;8.90;3.62;;;;;;;5.16;40.70;99997.34;4316295;33;33868;-81
2021/12/21 08:45:52;;;;;;;6.70;3.53;;;;;;;4.62;42.21;100002.41;4327861;33;34876;-79
2021/12/21 08:48:19;;;;;;;8.13;3.58;;;;;;;4.96;41.77;99996.34;4328856;33;33416;-81
2021/12/21 08:50:49;;;;;;;7.53;4.15;;;;;;;5.45;40.94;99991.84;4329057;33;33943;-79
2021/12/21 08:53:17;;;;;;;8.05;3.47;;;;;;;5.66;40.65;99998.78;4323716;33;35527;-81
2021/12/21 08:55:45;;;;;;;7.82;3.97;;;;;;;4.63;42.99;100001.62;4315242;33;34306;-81
2021/12/21 08:58:13;;;;;;;6.68;3.50;;;;;;;4.91;42.93;100008.97;4327697;33;33480;-81
2021/12/21 09:00:41;;;;;;;8.40;3.80;;;;;;;4.39;44.12;100011.53;4328722;33;34046;-81
2021/12/21 09:03:10;;;;;;;8.82;4.20;;;;;;;4.16;44.82;100007.78;4329006;33;34386;-81
2021/12/21 09:05:39;;;;;;;8.13;3.60;;;;;;;4.16;45.24;100018.03;4317488;33;33827;-81
2021/12/21 09:08:10;;;;;;;7.35;3.80;;;;;;;5.06;43.60;100014.00;4329855;33;34454;-80
2021/12/21 09:10:39;;;;;;;6.62;4.35;;;;;;;4.63;44.40;100019.59;4316367;33;34897;-80
2021/12/21 09:13:08;;;;;;;8.60;3.90;;;;;;;4.06;45.89;100021.84;4329722;33;34002;-78
2021/12/21 09:15:35;;;;;;;7.72;4.05;;;;;;;5.23;42.89;100013.13;4316732;33;34297;-79
2021/12/21 09:18:03;;;;;;;8.13;3.70;;;;;;;4.87;44.09;100022.50;4330281;33;33421;-79
2021/12/21 09:20:31;;;;;;;8.48;4.07;;;;;;;5.37;42.35;100017.19;4316737;33;33485;-79
2021/12/21 09:22:59;;;;;;;9.63;4.22;;;;;;;6.00;41.42;100012.38;4329311;33;33928;-78
2021/12/21 09:25:27;;;;;;;8.27;3.62;;;;;;;6.04;41.75;100008.25;4316735;33;33619;-85
2021/12/21 09:27:57;;;;;;;6.43;3.87;;;;;;;6.09;41.84;100001.62;4315971;33;34239;-81
2021/12/21 09:30:25;;;;;;;7.30;4.03;;;;;;;6.03;41.88;99994.50;4328276;33;33936;-81
2021/12/21 09:32:53;;;;;;;9.80;4.97;;;;;;;5.08;43.70;99997.84;4315896;33;34073;-81
2021/12/21 09:35:21;;;;;;;7.87;3.90;;;;;;;5.46;43.57;99993.63;4314929;33;34074;-81
2021/12/21 09:37:49;;;;;;;8.30;4.00;;;;;;;5.13;43.57;100003.19;4324234;33;33400;-83
2021/12/21 09:40:25;;;;;;;7.43;3.70;;;;;;;5.28;43.75;99990.19;4312240;33;36245;-83
2021/12/21 09:42:52;;;;;;;8.57;4.18;;;;;;;5.73;42.92;100000.84;4312401;33;34254;-82
2021/12/21 09:45:20;;;;;;;8.57;4.25;;;;;;;4.99;44.19;100006.78;4325847;33;34789;-79
2021/12/21 09:47:49;;;;;;;10.25;3.90;;;;;;;4.77;44.90;100010.00;4326337;33;33475;-82
2021/12/21 09:50:19;;;;;;;9.07;3.75;;;;;;;5.90;42.55;99992.16;4326309;33;33907;-82
2021/12/21 09:52:47;;;;;;;8.10;4.00;;;;;;;5.19;44.64;99993.22;4325386;33;33992;-84
2021/12/21 09:55:19;;;;;;;8.63;4.25;;;;;;;4.84;45.13;99987.25;4328555;33;34634;-82
2021/12/21 09:57:51;;;;;;;9.65;3.78;;;;;;;3.96;46.59;99988.81;4314541;33;33790;-81
2021/12/21 10:00:28;;;;;;;8.40;3.55;;;;;;;5.22;44.39;99980.47;4328025;33;33865;-82
2021/12/21 10:03:04;;;;;;;7.00;3.87;;;;;;;5.42;43.39;99977.94;4314784;33;33854;-84
2021/12/21 10:05:36;;;;;;;7.12;3.40;;;;;;;5.30;44.42;99973.13;4329925;33;33957;-86
2021/12/21 10:08:11;;;;;;;7.78;4.03;;;;;;;6.11;42.60;99971.69;4315618;33;33708;-82
2021/12/21 10:10:40;;;;;;;9.52;3.55;;;;;;;5.36;43.67;99974.31;4331095;33;33756;-85
2021/12/21 10:13:23;;;;;;;8.00;4.00;;;;;;;4.61;45.71;99985.25;4331615;33;34057;-80
2021/12/21 10:16:02;;;;;;;7.18;3.67;;;;;;;5.27;44.63;99967.88;4317487;33;33826;-84
2021/12/21 10:18:32;;;;;;;8.75;3.97;;;;;;;5.32;44.29;99967.25;4318636;33;33515;-83
2021/12/21 10:21:03;;;;;;;8.02;3.90;;;;;;;5.93;43.04;99970.87;4331730;33;33879;-81
2021/12/21 10:23:36;;;;;;;9.13;3.80;;;;;;;6.22;42.26;99962.72;4317671;33;34241;-83
2021/12/21 10:26:23;;;;;;;8.82;3.80;;;;;;;5.48;43.21;99968.84;4331307;33;34341;-79
2021/12/21 10:28:57;;;;;;;7.72;4.35;;;;;;;5.54;43.66;99973.41;4331469;33;33778;-80
2021/12/21 10:31:26;;;;;;;9.15;4.78;;;;;;;5.35;44.45;99966.53;4327471;33;33732;-82
2021/12/21 10:33:57;;;;;;;8.00;4.62;;;;;;;5.56;44.01;99974.34;4317245;33;34013;-80
2021/12/21 10:36:26;;;;;;;9.45;4.40;;;;;;;6.47;42.76;99958.59;4329705;33;33915;-86
2021/12/21 10:38:57;;;;;;;9.02;3.90;;;;;;;6.66;42.22;99955.09;4330787;33;33794;-86
2021/12/21 10:41:33;;;;;;;8.25;3.62;;;;;;;6.99;40.96;99942.69;4331115;33;33740;-86
2021/12/21 10:44:04;;;;;;;7.45;3.40;;;;;;;7.57;38.89;99940.59;4331148;33;34025;-84
2021/12/21 10:46:44;;;;;;;5.82;3.28;;;;;;;6.99;39.36;99934.94;4322517;33;34120;-80
2021/12/21 10:49:32;;;;;;;7.65;3.35;;;;;;;6.94;39.45;99932.19;4316855;33;34510;-80
2021/12/21 10:52:05;;;;;;;9.75;3.33;;;;;;;6.39;41.09;99944.53;4322102;33;33635;-80
2021/12/21 10:54:47;;;;;;;7.35;4.12;;;;;;;6.89;40.48;99931.09;4317280;33;33894;-79
2021/12/21 10:57:16;;;;;;;9.20;4.07;;;;;;;6.49;41.71;99936.38;4326704;33;34123;-80
2021/12/21 10:59:50;;;;;;;7.78;4.28;;;;;;;6.44;42.45;99932.69;4331085;33;34474;-80
2021/12/21 11:02:20;;;;;;;8.23;3.55;;;;;;;7.09;41.46;99934.50;4330934;33;33912;-79
2021/12/21 11:04:54;;;;;;;7.00;3.97;;;;;;;7.36;40.22;99936.38;4331456;33;34267;-81
2021/12/21 11:07:30;;;;;;;7.65;3.85;;;;;;;6.26;41.11;99938.88;4331064;33;35092;-80
2021/12/21 11:10:31;;;;;;;6.05;3.35;;;;;;;6.49;41.94;99929.53;4317952;33;33751;-79
2021/12/21 11:13:12;;;;;;;6.25;2.87;;;;;;;6.27;41.29;99930.31;4311083;33;34667;-79
2021/12/21 11:15:55;;;;;;;9.43;3.50;;;;;;;6.52;40.58;99921.06;4311324;33;34052;-81
2021/12/21 11:18:25;;;;;;;7.93;2.87;;;;;;;7.83;38.05;99914.00;4330624;33;33949;-82
2021/12/21 11:20:55;;;;;;;7.22;3.67;;;;;;;7.20;39.16;99912.56;4331168;33;33724;-84
2021/12/21 11:23:24;;;;;;;7.47;3.45;;;;;;;6.73;39.90;99906.44;4330079;33;34611;-83
2021/12/21 11:25:56;;;;;;;8.38;3.37;;;;;;;6.87;39.78;99911.28;4315284;33;34823;-85
2021/12/21 11:28:35;;;;;;;8.75;3.80;;;;;;;6.70;40.33;99910.59;4318042;33;34930;-80
2021/12/21 11:31:06;;;;;;;7.27;3.90;;;;;;;6.40;41.13;99910.22;4316497;33;33795;-81
2021/12/21 11:33:41;;;;;;;7.95;3.50;;;;;;;7.39;38.67;99905.53;4322717;33;34030;-80
2021/12/21 11:38:56;;;;;;;8.70;4.68;;;;;;;5.79;42.12;99909.34;4315224;33;34939;-79
2021/12/21 11:41:24;;;;;;;10.65;3.83;;;;;;;6.82;40.31;99899.09;4330648;33;32588;-81
2021/12/21 11:43:57;;;;;;;8.18;4.43;;;;;;;6.47;41.32;99913.09;4318611;33;33974;-81
2021/12/21 11:47:01;;;;;;;7.00;3.22;;;;;;;6.93;40.45;99912.41;4317352;33;34056;-88
2021/12/21 11:49:43;;;;;;;7.28;3.90;;;;;;;5.91;41.84;99902.97;4263888;33;33858;-80
2021/12/21 11:52:14;;;;;;;9.10;3.78;;;;;;;5.97;40.68;99906.72;4326990;33;33566;-85
2021/12/21 11:54:56;;;;;;;17.48;3.95;;;;;;;7.59;37.81;99904.56;4317357;33;33898;-87
2021/12/21 11:57:52;;;;;;;8.25;3.72;;;;;;;6.53;39.87;99897.91;4303039;33;34223;-80
2021/12/21 12:00:27;;;;;;;7.20;4.12;;;;;;;6.92;39.59;99896.84;4291423;33;33850;-81
2021/12/21 12:03:08;;;;;;;9.68;4.05;;;;;;;6.50;40.64;99891.75;4316613;33;34561;-87
2021/12/21 12:05:36;;;;;;;8.40;4.03;;;;;;;6.08;41.52;99894.31;4316342;33;34876;-79
2021/12/21 12:08:10;;;;;;;5.25;3.40;;;;;;;6.41;40.49;99889.69;4324208;33;33238;-83
2021/12/21 12:10:57;;;;;;;7.55;3.75;;;;;;;6.58;40.40;99888.66;4316064;33;33752;-77
2021/12/21 12:13:28;;;;;;;7.87;4.10;;;;;;;6.41;40.50;99891.41;4316344;33;33695;-87
2021/12/21 12:16:06;;;;;;;8.65;4.35;;;;;;;6.19;40.85;99895.66;4329763;33;33645;-85
2021/12/21 12:18:45;;;;;;;9.52;4.20;;;;;;;5.48;42.65;99891.69;4317247;33;34641;-77
2021/12/21 12:21:23;;;;;;;8.43;4.68;;;;;;;5.74;42.55;99887.69;4330074;33;35139;-87
2021/12/21 12:24:02;;;;;;;9.48;4.15;;;;;;;6.30;41.07;99881.53;4316006;33;33582;-76
2021/12/21 12:26:39;;;;;;;7.10;3.72;;;;;;;4.94;43.66;99882.34;4303156;33;33572;-80
2021/12/21 12:29:16;;;;;;;7.35;3.60;;;;;;;4.62;44.68;99891.97;4304358;33;35198;-79
2021/12/21 12:31:57;;;;;;;7.22;3.75;;;;;;;5.65;42.52;99889.88;4323012;33;34675;-81
2021/12/21 12:34:29;;;;;;;6.03;3.42;;;;;;;5.19;42.92;99892.97;4330449;33;33992;-78
2021/12/21 12:36:57;;;;;;;8.60;3.87;;;;;;;5.34;42.67;99895.31;4330234;33;34169;-80
2021/12/21 12:39:33;;;;;;;8.43;3.75;;;;;;;5.06;43.16;99891.50;4317286;33;34886;-79
2021/12/21 12:42:09;;;;;;;8.68;3.78;;;;;;;5.08;42.85;99894.16;4330719;33;33994;-81
2021/12/21 12:44:39;;;;;;;7.37;4.05;;;;;;;5.18;42.40;99896.31;4330654;33;33776;-82
2021/12/21 12:47:10;;;;;;;6.95;3.42;;;;;;;6.10;40.66;99884.97;4330538;33;33924;-79
2021/12/21 12:49:49;;;;;;;8.27;3.87;;;;;;;6.97;38.96;99879.84;4330160;33;34616;-79
2021/12/21 12:52:19;;;;;;;7.03;4.25;;;;;;;6.49;39.21;99892.59;4330446;33;34649;-78
2021/12/21 12:54:48;;;;;;;7.30;3.87;;;;;;;7.14;38.33;99891.69;4327802;33;33573;-80
2021/12/21 12:57:31;;;;;;;7.55;3.80;;;;;;;6.36;39.99;99895.47;4330276;33;33546;-79
2021/12/21 13:00:30;;;;;;;7.65;3.28;;;;;;;6.82;38.66;99883.62;4329662;33;34201;-81
2021/12/21 13:03:07;;;;;;;8.45;3.40;;;;;;;7.71;36.89;99884.34;4321277;33;33873;-80
2021/12/21 13:05:53;;;;;;;7.57;3.35;;;;;;;7.23;37.95;99889.47;4329784;33;33014;-85